sensor_id;sensor_type;location;lat;lon;timestamp;temperature;humidity
20698;DHT22;10508;50.956;4.640;2022-08-03T00:01:41;21.30;99.90
20698;DHT22;10508;50.956;4.640;2022-08-03T00:04:07;21.40;99.90
20698;DHT22;10508;50.956;4.640;2022-08-03T00:06:33;21.40;99.90
20698;DHT22;10508;50.956;4.640;2022-08-03T00:08:59;21.30;99.90
20698;DHT22;10508;50.956;4.640;2022-08-03T00:11:25;21.30;99.90
20698;DHT22;10508;50.956;4.640;2022-08-03T00:13:51;21.20;99.90
20698;DHT22;10508;50.956;4.640;2022-08-03T00:16:16;21.20;99.90
20698;DHT22;10508;50.956;4.640;2022-08-03T00:18:42;21.30;99.90
20698;DHT22;10508;50.956;4.640;2022-08-03T00:21:08;21.20;99.90
20698;DHT22;10508;50.956;4.640;2022-08-03T00:23:34;21.40;99.90
20698;DHT22;10508;50.956;4.640;2022-08-03T00:26:00;21.20;99.90
20698;DHT22;10508;50.956;4.640;2022-08-03T00:28:26;21.20;99.90
20698;DHT22;10508;50.956;4.640;2022-08-03T00:30:51;21.20;99.90
20698;DHT22;10508;50.956;4.640;2022-08-03T00:33:17;21.10;99.90
20698;DHT22;10508;50.956;4.640;2022-08-03T00:35:43;21.00;99.90
20698;DHT22;10508;50.956;4.640;2022-08-03T00:38:09;21.00;99.90
20698;DHT22;10508;50.956;4.640;2022-08-03T00:40:35;20.90;99.90
20698;DHT22;10508;50.956;4.640;2022-08-03T00:43:05;21.10;99.90
20698;DHT22;10508;50.956;4.640;2022-08-03T00:45:36;21.00;99.90
20698;DHT22;10508;50.956;4.640;2022-08-03T00:48:03;20.90;99.90
20698;DHT22;10508;50.956;4.640;2022-08-03T00:50:32;20.70;99.90
20698;DHT22;10508;50.956;4.640;2022-08-03T00:53:00;20.70;99.90
20698;DHT22;10508;50.956;4.640;2022-08-03T00:55:27;20.70;99.90
20698;DHT22;10508;50.956;4.640;2022-08-03T00:57:54;20.70;99.90
20698;DHT22;10508;50.956;4.640;2022-08-03T01:00:22;20.70;99.90
20698;DHT22;10508;50.956;4.640;2022-08-03T01:02:49;20.70;99.90
20698;DHT22;10508;50.956;4.640;2022-08-03T01:05:15;20.70;99.90
20698;DHT22;10508;50.956;4.640;2022-08-03T01:13:33;20.40;99.90
20698;DHT22;10508;50.956;4.640;2022-08-03T01:16:07;20.30;99.90
20698;DHT22;10508;50.956;4.640;2022-08-03T01:18:49;20.40;99.90
20698;DHT22;10508;50.956;4.640;2022-08-03T01:21:28;20.40;99.90
20698;DHT22;10508;50.956;4.640;2022-08-03T01:24:30;20.50;99.90
20698;DHT22;10508;50.956;4.640;2022-08-03T01:27:17;20.50;99.90
20698;DHT22;10508;50.956;4.640;2022-08-03T01:32:40;20.50;99.90
20698;DHT22;10508;50.956;4.640;2022-08-03T01:35:16;20.20;99.90
20698;DHT22;10508;50.956;4.640;2022-08-03T01:37:56;20.00;99.90
20698;DHT22;10508;50.956;4.640;2022-08-03T01:40:24;20.10;99.90
20698;DHT22;10508;50.956;4.640;2022-08-03T01:42:51;20.20;99.90
20698;DHT22;10508;50.956;4.640;2022-08-03T01:45:20;20.20;99.90
20698;DHT22;10508;50.956;4.640;2022-08-03T01:47:48;20.20;99.90
20698;DHT22;10508;50.956;4.640;2022-08-03T01:50:14;20.20;99.90
20698;DHT22;10508;50.956;4.640;2022-08-03T01:52:43;20.20;99.90
20698;DHT22;10508;50.956;4.640;2022-08-03T01:55:11;20.20;99.90
20698;DHT22;10508;50.956;4.640;2022-08-03T01:57:39;20.10;99.90
20698;DHT22;10508;50.956;4.640;2022-08-03T02:00:08;20.10;99.90
20698;DHT22;10508;50.956;4.640;2022-08-03T02:02:35;20.00;99.90
20698;DHT22;10508;50.956;4.640;2022-08-03T02:05:04;19.80;99.90
20698;DHT22;10508;50.956;4.640;2022-08-03T02:07:32;19.80;99.90
20698;DHT22;10508;50.956;4.640;2022-08-03T02:10:00;19.90;99.90
20698;DHT22;10508;50.956;4.640;2022-08-03T02:12:27;20.10;99.90
20698;DHT22;10508;50.956;4.640;2022-08-03T02:14:55;20.00;99.90
20698;DHT22;10508;50.956;4.640;2022-08-03T02:17:22;19.90;99.90
20698;DHT22;10508;50.956;4.640;2022-08-03T02:19:49;19.80;99.90
20698;DHT22;10508;50.956;4.640;2022-08-03T02:22:16;19.70;99.90
20698;DHT22;10508;50.956;4.640;2022-08-03T02:24:42;19.80;99.90
20698;DHT22;10508;50.956;4.640;2022-08-03T02:27:27;19.60;99.90
20698;DHT22;10508;50.956;4.640;2022-08-03T02:30:14;19.50;99.90
20698;DHT22;10508;50.956;4.640;2022-08-03T02:32:42;19.60;99.90
20698;DHT22;10508;50.956;4.640;2022-08-03T02:35:12;19.60;99.90
20698;DHT22;10508;50.956;4.640;2022-08-03T02:37:47;19.50;99.90
20698;DHT22;10508;50.956;4.640;2022-08-03T02:40:15;19.50;99.90
20698;DHT22;10508;50.956;4.640;2022-08-03T02:42:44;19.50;99.90
20698;DHT22;10508;50.956;4.640;2022-08-03T02:45:11;19.50;99.90
20698;DHT22;10508;50.956;4.640;2022-08-03T02:47:48;19.40;99.90
20698;DHT22;10508;50.956;4.640;2022-08-03T02:50:16;19.20;99.90
20698;DHT22;10508;50.956;4.640;2022-08-03T02:52:44;19.20;99.90
20698;DHT22;10508;50.956;4.640;2022-08-03T02:55:14;19.40;99.90
20698;DHT22;10508;50.956;4.640;2022-08-03T02:57:42;19.30;99.90
20698;DHT22;10508;50.956;4.640;2022-08-03T03:00:09;19.40;99.90
20698;DHT22;10508;50.956;4.640;2022-08-03T03:02:35;19.40;99.90
20698;DHT22;10508;50.956;4.640;2022-08-03T03:05:01;19.50;99.90
20698;DHT22;10508;50.956;4.640;2022-08-03T03:07:27;19.40;99.90
20698;DHT22;10508;50.956;4.640;2022-08-03T03:09:53;19.20;99.90
20698;DHT22;10508;50.956;4.640;2022-08-03T03:12:20;19.10;99.90
20698;DHT22;10508;50.956;4.640;2022-08-03T03:14:46;19.10;99.90
20698;DHT22;10508;50.956;4.640;2022-08-03T03:17:14;19.10;99.90
20698;DHT22;10508;50.956;4.640;2022-08-03T03:19:41;19.00;99.90
20698;DHT22;10508;50.956;4.640;2022-08-03T03:22:10;19.00;99.90
20698;DHT22;10508;50.956;4.640;2022-08-03T03:24:36;18.90;99.90
20698;DHT22;10508;50.956;4.640;2022-08-03T03:27:04;18.80;99.90
20698;DHT22;10508;50.956;4.640;2022-08-03T03:29:31;18.70;99.90
20698;DHT22;10508;50.956;4.640;2022-08-03T03:31:57;18.80;99.90
20698;DHT22;10508;50.956;4.640;2022-08-03T03:34:23;18.70;99.90
20698;DHT22;10508;50.956;4.640;2022-08-03T03:36:49;18.90;99.90
20698;DHT22;10508;50.956;4.640;2022-08-03T03:39:14;18.90;99.90
20698;DHT22;10508;50.956;4.640;2022-08-03T03:41:40;18.80;99.90
20698;DHT22;10508;50.956;4.640;2022-08-03T03:44:06;18.80;99.90
20698;DHT22;10508;50.956;4.640;2022-08-03T03:46:31;18.80;99.90
20698;DHT22;10508;50.956;4.640;2022-08-03T03:48:57;18.80;99.90
20698;DHT22;10508;50.956;4.640;2022-08-03T03:51:23;18.70;99.90
20698;DHT22;10508;50.956;4.640;2022-08-03T03:53:56;18.80;99.90
20698;DHT22;10508;50.956;4.640;2022-08-03T03:56:22;18.80;99.90
20698;DHT22;10508;50.956;4.640;2022-08-03T03:58:48;18.70;99.90
20698;DHT22;10508;50.956;4.640;2022-08-03T04:01:14;18.70;99.90
20698;DHT22;10508;50.956;4.640;2022-08-03T04:03:40;18.60;99.90
20698;DHT22;10508;50.956;4.640;2022-08-03T04:06:05;18.70;99.90
20698;DHT22;10508;50.956;4.640;2022-08-03T04:08:50;18.70;99.90
20698;DHT22;10508;50.956;4.640;2022-08-03T04:11:38;18.70;99.90
20698;DHT22;10508;50.956;4.640;2022-08-03T04:14:11;18.60;99.90
20698;DHT22;10508;50.956;4.640;2022-08-03T04:16:41;18.70;99.90
20698;DHT22;10508;50.956;4.640;2022-08-03T04:19:13;18.70;99.90
20698;DHT22;10508;50.956;4.640;2022-08-03T04:21:41;18.70;99.90
20698;DHT22;10508;50.956;4.640;2022-08-03T04:24:08;18.70;99.90
20698;DHT22;10508;50.956;4.640;2022-08-03T04:26:38;18.70;99.90
20698;DHT22;10508;50.956;4.640;2022-08-03T04:29:06;18.70;99.90
20698;DHT22;10508;50.956;4.640;2022-08-03T04:31:33;18.70;99.90
20698;DHT22;10508;50.956;4.640;2022-08-03T04:33:59;18.70;99.90
20698;DHT22;10508;50.956;4.640;2022-08-03T04:36:26;18.70;99.90
20698;DHT22;10508;50.956;4.640;2022-08-03T04:39:07;18.70;99.90
20698;DHT22;10508;50.956;4.640;2022-08-03T04:41:35;18.80;99.90
20698;DHT22;10508;50.956;4.640;2022-08-03T04:44:04;18.80;99.90
20698;DHT22;10508;50.956;4.640;2022-08-03T04:46:39;18.90;99.90
20698;DHT22;10508;50.956;4.640;2022-08-03T04:49:06;18.90;99.90
20698;DHT22;10508;50.956;4.640;2022-08-03T04:51:32;18.80;99.90
20698;DHT22;10508;50.956;4.640;2022-08-03T04:54:03;18.80;99.90
20698;DHT22;10508;50.956;4.640;2022-08-03T04:56:28;18.90;99.90
20698;DHT22;10508;50.956;4.640;2022-08-03T04:58:54;18.80;99.90
20698;DHT22;10508;50.956;4.640;2022-08-03T05:01:20;18.80;99.90
20698;DHT22;10508;50.956;4.640;2022-08-03T05:03:47;18.90;99.90
20698;DHT22;10508;50.956;4.640;2022-08-03T05:06:12;18.90;99.90
20698;DHT22;10508;50.956;4.640;2022-08-03T05:08:38;19.00;99.90
20698;DHT22;10508;50.956;4.640;2022-08-03T05:11:04;19.00;99.90
20698;DHT22;10508;50.956;4.640;2022-08-03T05:13:30;19.10;99.90
20698;DHT22;10508;50.956;4.640;2022-08-03T05:15:56;19.10;99.90
20698;DHT22;10508;50.956;4.640;2022-08-03T05:18:21;19.20;99.90
20698;DHT22;10508;50.956;4.640;2022-08-03T05:20:47;19.30;99.90
20698;DHT22;10508;50.956;4.640;2022-08-03T05:23:13;19.50;99.90
20698;DHT22;10508;50.956;4.640;2022-08-03T05:25:38;19.50;99.90
20698;DHT22;10508;50.956;4.640;2022-08-03T05:28:04;19.60;99.90
20698;DHT22;10508;50.956;4.640;2022-08-03T05:30:29;19.60;99.90
20698;DHT22;10508;50.956;4.640;2022-08-03T05:32:55;19.70;99.90
20698;DHT22;10508;50.956;4.640;2022-08-03T05:35:21;19.80;99.90
20698;DHT22;10508;50.956;4.640;2022-08-03T05:37:49;19.80;99.90
20698;DHT22;10508;50.956;4.640;2022-08-03T05:40:15;20.00;99.90
20698;DHT22;10508;50.956;4.640;2022-08-03T05:42:41;20.10;99.90
20698;DHT22;10508;50.956;4.640;2022-08-03T05:45:07;20.10;99.90
20698;DHT22;10508;50.956;4.640;2022-08-03T05:47:45;20.20;99.90
20698;DHT22;10508;50.956;4.640;2022-08-03T05:50:12;20.30;99.90
20698;DHT22;10508;50.956;4.640;2022-08-03T05:52:39;20.40;99.90
20698;DHT22;10508;50.956;4.640;2022-08-03T05:55:09;20.50;99.90
20698;DHT22;10508;50.956;4.640;2022-08-03T05:57:35;20.60;99.90
20698;DHT22;10508;50.956;4.640;2022-08-03T06:00:05;20.60;99.90
20698;DHT22;10508;50.956;4.640;2022-08-03T06:02:31;20.80;99.90
20698;DHT22;10508;50.956;4.640;2022-08-03T06:04:57;20.80;99.90
20698;DHT22;10508;50.956;4.640;2022-08-03T06:07:22;20.80;99.90
20698;DHT22;10508;50.956;4.640;2022-08-03T06:09:48;21.00;99.90
20698;DHT22;10508;50.956;4.640;2022-08-03T06:12:14;21.10;99.90
20698;DHT22;10508;50.956;4.640;2022-08-03T06:14:40;21.20;99.90
20698;DHT22;10508;50.956;4.640;2022-08-03T06:17:06;21.30;99.90
20698;DHT22;10508;50.956;4.640;2022-08-03T06:19:31;21.40;99.90
20698;DHT22;10508;50.956;4.640;2022-08-03T06:21:57;21.40;99.90
20698;DHT22;10508;50.956;4.640;2022-08-03T06:24:22;21.50;99.90
20698;DHT22;10508;50.956;4.640;2022-08-03T06:26:48;21.60;99.90
20698;DHT22;10508;50.956;4.640;2022-08-03T06:29:14;21.70;99.90
20698;DHT22;10508;50.956;4.640;2022-08-03T06:31:39;21.70;99.90
20698;DHT22;10508;50.956;4.640;2022-08-03T06:34:05;21.90;99.90
20698;DHT22;10508;50.956;4.640;2022-08-03T06:36:31;21.90;99.90
20698;DHT22;10508;50.956;4.640;2022-08-03T06:38:57;22.00;99.90
20698;DHT22;10508;50.956;4.640;2022-08-03T06:41:24;22.10;99.90
20698;DHT22;10508;50.956;4.640;2022-08-03T06:43:50;22.20;99.90
20698;DHT22;10508;50.956;4.640;2022-08-03T06:46:15;22.30;99.90
20698;DHT22;10508;50.956;4.640;2022-08-03T06:48:41;22.30;99.90
20698;DHT22;10508;50.956;4.640;2022-08-03T06:51:07;22.40;99.90
20698;DHT22;10508;50.956;4.640;2022-08-03T06:53:33;22.40;99.90
20698;DHT22;10508;50.956;4.640;2022-08-03T06:55:58;22.40;99.90
20698;DHT22;10508;50.956;4.640;2022-08-03T06:58:24;22.40;99.90
20698;DHT22;10508;50.956;4.640;2022-08-03T07:00:49;22.60;99.90
20698;DHT22;10508;50.956;4.640;2022-08-03T07:03:16;22.60;99.90
20698;DHT22;10508;50.956;4.640;2022-08-03T07:05:42;22.60;99.90
20698;DHT22;10508;50.956;4.640;2022-08-03T07:08:08;22.70;99.90
20698;DHT22;10508;50.956;4.640;2022-08-03T07:10:34;22.90;99.90
20698;DHT22;10508;50.956;4.640;2022-08-03T07:13:00;22.90;99.90
20698;DHT22;10508;50.956;4.640;2022-08-03T07:15:26;22.90;99.90
20698;DHT22;10508;50.956;4.640;2022-08-03T07:17:51;23.10;99.90
20698;DHT22;10508;50.956;4.640;2022-08-03T07:20:17;23.10;99.90
20698;DHT22;10508;50.956;4.640;2022-08-03T07:22:44;23.20;99.90
20698;DHT22;10508;50.956;4.640;2022-08-03T07:25:09;23.30;99.90
20698;DHT22;10508;50.956;4.640;2022-08-03T07:27:35;23.40;99.90
20698;DHT22;10508;50.956;4.640;2022-08-03T07:30:05;23.50;99.90
20698;DHT22;10508;50.956;4.640;2022-08-03T07:32:32;23.60;99.90
20698;DHT22;10508;50.956;4.640;2022-08-03T07:34:57;23.60;99.90
20698;DHT22;10508;50.956;4.640;2022-08-03T07:37:23;23.60;99.90
20698;DHT22;10508;50.956;4.640;2022-08-03T07:39:49;23.70;99.90
20698;DHT22;10508;50.956;4.640;2022-08-03T07:42:14;23.70;99.60
20698;DHT22;10508;50.956;4.640;2022-08-03T07:44:40;23.80;98.80
20698;DHT22;10508;50.956;4.640;2022-08-03T07:47:06;23.80;99.40
20698;DHT22;10508;50.956;4.640;2022-08-03T07:49:31;23.90;98.70
20698;DHT22;10508;50.956;4.640;2022-08-03T07:51:57;23.90;98.00
20698;DHT22;10508;50.956;4.640;2022-08-03T07:54:42;23.90;98.20
20698;DHT22;10508;50.956;4.640;2022-08-03T07:57:08;23.90;98.10
20698;DHT22;10508;50.956;4.640;2022-08-03T07:59:34;24.10;98.30
20698;DHT22;10508;50.956;4.640;2022-08-03T08:02:00;24.10;98.20
20698;DHT22;10508;50.956;4.640;2022-08-03T08:04:25;24.30;97.90
20698;DHT22;10508;50.956;4.640;2022-08-03T08:06:51;24.30;97.20
20698;DHT22;10508;50.956;4.640;2022-08-03T08:09:17;24.30;96.90
20698;DHT22;10508;50.956;4.640;2022-08-03T08:11:42;24.30;96.90
20698;DHT22;10508;50.956;4.640;2022-08-03T08:14:08;24.40;96.60
20698;DHT22;10508;50.956;4.640;2022-08-03T08:16:34;24.40;96.50
20698;DHT22;10508;50.956;4.640;2022-08-03T08:18:59;24.50;96.50
20698;DHT22;10508;50.956;4.640;2022-08-03T08:21:26;24.60;96.90
20698;DHT22;10508;50.956;4.640;2022-08-03T08:23:52;24.70;96.40
20698;DHT22;10508;50.956;4.640;2022-08-03T08:26:17;24.90;95.90
20698;DHT22;10508;50.956;4.640;2022-08-03T08:28:43;25.10;95.30
20698;DHT22;10508;50.956;4.640;2022-08-03T08:31:09;25.30;95.00
20698;DHT22;10508;50.956;4.640;2022-08-03T08:33:34;25.50;94.60
20698;DHT22;10508;50.956;4.640;2022-08-03T08:36:09;25.60;94.20
20698;DHT22;10508;50.956;4.640;2022-08-03T08:38:35;25.80;94.10
20698;DHT22;10508;50.956;4.640;2022-08-03T08:41:00;25.90;93.70
20698;DHT22;10508;50.956;4.640;2022-08-03T08:43:27;26.10;93.40
20698;DHT22;10508;50.956;4.640;2022-08-03T08:45:53;26.20;93.10
20698;DHT22;10508;50.956;4.640;2022-08-03T08:48:24;26.30;93.00
20698;DHT22;10508;50.956;4.640;2022-08-03T08:50:55;26.30;92.30
20698;DHT22;10508;50.956;4.640;2022-08-03T08:53:24;26.50;92.10
20698;DHT22;10508;50.956;4.640;2022-08-03T08:55:50;26.60;92.00
20698;DHT22;10508;50.956;4.640;2022-08-03T08:58:18;26.70;91.80
20698;DHT22;10508;50.956;4.640;2022-08-03T09:00:45;26.80;91.70
20698;DHT22;10508;50.956;4.640;2022-08-03T09:03:13;27.10;92.00
20698;DHT22;10508;50.956;4.640;2022-08-03T09:05:41;27.20;91.50
20698;DHT22;10508;50.956;4.640;2022-08-03T09:08:07;27.30;90.20
20698;DHT22;10508;50.956;4.640;2022-08-03T09:10:33;27.40;90.60
20698;DHT22;10508;50.956;4.640;2022-08-03T09:12:59;27.50;90.50
20698;DHT22;10508;50.956;4.640;2022-08-03T09:15:28;27.70;90.50
20698;DHT22;10508;50.956;4.640;2022-08-03T09:17:58;27.80;89.90
20698;DHT22;10508;50.956;4.640;2022-08-03T09:20:26;27.90;87.50
20698;DHT22;10508;50.956;4.640;2022-08-03T09:23:08;28.00;87.50
20698;DHT22;10508;50.956;4.640;2022-08-03T09:25:39;28.10;87.70
20698;DHT22;10508;50.956;4.640;2022-08-03T09:28:09;28.20;87.00
20698;DHT22;10508;50.956;4.640;2022-08-03T09:30:37;28.40;87.40
20698;DHT22;10508;50.956;4.640;2022-08-03T09:33:06;28.60;87.60
20698;DHT22;10508;50.956;4.640;2022-08-03T09:35:32;28.60;84.80
20698;DHT22;10508;50.956;4.640;2022-08-03T09:38:12;28.80;85.80
20698;DHT22;10508;50.956;4.640;2022-08-03T09:40:38;28.90;85.30
20698;DHT22;10508;50.956;4.640;2022-08-03T09:43:05;29.10;84.00
20698;DHT22;10508;50.956;4.640;2022-08-03T09:45:33;29.30;83.90
20698;DHT22;10508;50.956;4.640;2022-08-03T09:50:48;29.40;83.10
20698;DHT22;10508;50.956;4.640;2022-08-03T09:53:16;29.60;84.60
20698;DHT22;10508;50.956;4.640;2022-08-03T09:55:58;29.70;82.30
20698;DHT22;10508;50.956;4.640;2022-08-03T09:58:46;29.80;82.90
20698;DHT22;10508;50.956;4.640;2022-08-03T10:01:12;29.90;82.30
20698;DHT22;10508;50.956;4.640;2022-08-03T10:03:39;30.20;82.90
20698;DHT22;10508;50.956;4.640;2022-08-03T10:06:18;30.10;80.80
20698;DHT22;10508;50.956;4.640;2022-08-03T10:08:45;30.30;82.10
20698;DHT22;10508;50.956;4.640;2022-08-03T10:11:10;30.40;80.60
20698;DHT22;10508;50.956;4.640;2022-08-03T10:13:37;30.50;80.40
20698;DHT22;10508;50.956;4.640;2022-08-03T10:16:02;30.60;80.40
20698;DHT22;10508;50.956;4.640;2022-08-03T10:18:29;30.90;81.40
20698;DHT22;10508;50.956;4.640;2022-08-03T10:21:01;30.80;79.00
20698;DHT22;10508;50.956;4.640;2022-08-03T10:23:28;30.90;79.80
20698;DHT22;10508;50.956;4.640;2022-08-03T10:25:57;31.00;78.60
20698;DHT22;10508;50.956;4.640;2022-08-03T10:28:26;31.30;79.30
20698;DHT22;10508;50.956;4.640;2022-08-03T10:30:56;31.40;78.10
20698;DHT22;10508;50.956;4.640;2022-08-03T10:33:27;31.60;78.70
20698;DHT22;10508;50.956;4.640;2022-08-03T10:35:56;31.70;77.80
20698;DHT22;10508;50.956;4.640;2022-08-03T10:38:39;31.70;76.80
20698;DHT22;10508;50.956;4.640;2022-08-03T10:41:06;31.70;77.60
20698;DHT22;10508;50.956;4.640;2022-08-03T10:43:41;31.60;77.90
20698;DHT22;10508;50.956;4.640;2022-08-03T10:46:10;31.30;77.10
20698;DHT22;10508;50.956;4.640;2022-08-03T10:48:35;31.40;76.40
20698;DHT22;10508;50.956;4.640;2022-08-03T10:51:02;31.60;77.20
20698;DHT22;10508;50.956;4.640;2022-08-03T10:53:36;31.70;76.70
20698;DHT22;10508;50.956;4.640;2022-08-03T10:56:03;31.70;78.80
20698;DHT22;10508;50.956;4.640;2022-08-03T10:58:48;31.80;76.00
20698;DHT22;10508;50.956;4.640;2022-08-03T11:01:14;31.90;75.80
20698;DHT22;10508;50.956;4.640;2022-08-03T11:06:25;31.90;75.90
20698;DHT22;10508;50.956;4.640;2022-08-03T11:11:36;31.80;75.60
20698;DHT22;10508;50.956;4.640;2022-08-03T11:14:03;32.00;74.40
20698;DHT22;10508;50.956;4.640;2022-08-03T11:16:32;32.10;75.00
20698;DHT22;10508;50.956;4.640;2022-08-03T11:19:02;32.10;74.40
20698;DHT22;10508;50.956;4.640;2022-08-03T11:21:55;32.20;73.20
20698;DHT22;10508;50.956;4.640;2022-08-03T11:27:22;32.10;75.70
20698;DHT22;10508;50.956;4.640;2022-08-03T11:30:10;32.30;74.70
20698;DHT22;10508;50.956;4.640;2022-08-03T11:35:15;32.30;73.20
20698;DHT22;10508;50.956;4.640;2022-08-03T11:40:45;32.70;73.50
20698;DHT22;10508;50.956;4.640;2022-08-03T11:43:42;32.70;72.10
20698;DHT22;10508;50.956;4.640;2022-08-03T11:46:11;32.90;72.70
20698;DHT22;10508;50.956;4.640;2022-08-03T11:48:48;32.90;72.00
20698;DHT22;10508;50.956;4.640;2022-08-03T11:51:28;32.70;71.40
20698;DHT22;10508;50.956;4.640;2022-08-03T11:54:02;32.80;71.80
20698;DHT22;10508;50.956;4.640;2022-08-03T11:56:46;32.80;71.00
20698;DHT22;10508;50.956;4.640;2022-08-03T11:59:12;32.90;73.40
20698;DHT22;10508;50.956;4.640;2022-08-03T12:01:37;33.30;71.80
20698;DHT22;10508;50.956;4.640;2022-08-03T12:04:05;33.40;70.30
20698;DHT22;10508;50.956;4.640;2022-08-03T12:06:31;33.20;69.50
20698;DHT22;10508;50.956;4.640;2022-08-03T12:09:16;32.90;70.80
20698;DHT22;10508;50.956;4.640;2022-08-03T12:11:42;33.30;73.60
20698;DHT22;10508;50.956;4.640;2022-08-03T12:14:15;33.50;71.60
20698;DHT22;10508;50.956;4.640;2022-08-03T12:16:46;33.60;68.90
20698;DHT22;10508;50.956;4.640;2022-08-03T12:19:12;33.70;70.10
20698;DHT22;10508;50.956;4.640;2022-08-03T12:21:48;33.60;68.20
20698;DHT22;10508;50.956;4.640;2022-08-03T12:24:14;33.10;68.90
20698;DHT22;10508;50.956;4.640;2022-08-03T12:26:48;33.00;70.00
20698;DHT22;10508;50.956;4.640;2022-08-03T12:29:21;33.30;69.90
20698;DHT22;10508;50.956;4.640;2022-08-03T12:31:47;33.60;70.80
20698;DHT22;10508;50.956;4.640;2022-08-03T12:34:14;33.80;68.80
20698;DHT22;10508;50.956;4.640;2022-08-03T12:36:50;34.10;69.00
20698;DHT22;10508;50.956;4.640;2022-08-03T12:39:17;34.30;68.40
20698;DHT22;10508;50.956;4.640;2022-08-03T12:41:52;34.50;67.00
20698;DHT22;10508;50.956;4.640;2022-08-03T12:44:29;34.60;67.60
20698;DHT22;10508;50.956;4.640;2022-08-03T12:46:59;34.30;66.00
20698;DHT22;10508;50.956;4.640;2022-08-03T12:49:25;34.30;67.20
20698;DHT22;10508;50.956;4.640;2022-08-03T12:54:23;34.50;65.70
20698;DHT22;10508;50.956;4.640;2022-08-03T12:57:09;34.40;65.60
20698;DHT22;10508;50.956;4.640;2022-08-03T12:59:40;34.10;65.70
20698;DHT22;10508;50.956;4.640;2022-08-03T13:02:21;34.10;66.10
20698;DHT22;10508;50.956;4.640;2022-08-03T13:04:48;34.20;66.20
20698;DHT22;10508;50.956;4.640;2022-08-03T13:07:15;34.50;65.00
20698;DHT22;10508;50.956;4.640;2022-08-03T13:09:46;34.70;66.50
20698;DHT22;10508;50.956;4.640;2022-08-03T13:12:20;34.90;65.90
20698;DHT22;10508;50.956;4.640;2022-08-03T13:14:47;35.10;64.10
20698;DHT22;10508;50.956;4.640;2022-08-03T13:17:13;35.20;63.40
20698;DHT22;10508;50.956;4.640;2022-08-03T13:19:41;34.90;64.30
20698;DHT22;10508;50.956;4.640;2022-08-03T13:22:18;34.40;64.10
20698;DHT22;10508;50.956;4.640;2022-08-03T13:24:46;34.20;65.10
20698;DHT22;10508;50.956;4.640;2022-08-03T13:27:12;33.90;64.70
20698;DHT22;10508;50.956;4.640;2022-08-03T13:29:39;33.40;65.60
20698;DHT22;10508;50.956;4.640;2022-08-03T13:32:05;33.60;67.50
20698;DHT22;10508;50.956;4.640;2022-08-03T13:34:31;34.00;67.70
20698;DHT22;10508;50.956;4.640;2022-08-03T13:36:57;34.10;65.50
20698;DHT22;10508;50.956;4.640;2022-08-03T13:39:23;34.00;65.90
20698;DHT22;10508;50.956;4.640;2022-08-03T13:41:49;33.80;66.20
20698;DHT22;10508;50.956;4.640;2022-08-03T13:44:15;34.00;65.10
20698;DHT22;10508;50.956;4.640;2022-08-03T13:46:41;33.80;65.40
20698;DHT22;10508;50.956;4.640;2022-08-03T13:49:07;33.80;65.30
20698;DHT22;10508;50.956;4.640;2022-08-03T13:51:33;34.00;65.70
20698;DHT22;10508;50.956;4.640;2022-08-03T13:53:59;34.40;63.80
20698;DHT22;10508;50.956;4.640;2022-08-03T13:56:25;35.00;63.90
20698;DHT22;10508;50.956;4.640;2022-08-03T13:58:51;34.90;62.70
20698;DHT22;10508;50.956;4.640;2022-08-03T14:01:17;35.00;65.30
20698;DHT22;10508;50.956;4.640;2022-08-03T14:03:43;34.90;62.50
20698;DHT22;10508;50.956;4.640;2022-08-03T14:06:08;34.60;62.70
20698;DHT22;10508;50.956;4.640;2022-08-03T14:08:35;34.40;64.30
20698;DHT22;10508;50.956;4.640;2022-08-03T14:11:01;34.30;63.60
20698;DHT22;10508;50.956;4.640;2022-08-03T14:13:26;34.10;63.80
20698;DHT22;10508;50.956;4.640;2022-08-03T14:15:52;34.20;62.80
20698;DHT22;10508;50.956;4.640;2022-08-03T14:18:20;34.10;62.60
20698;DHT22;10508;50.956;4.640;2022-08-03T14:20:46;34.30;63.00
20698;DHT22;10508;50.956;4.640;2022-08-03T14:23:13;34.70;61.80
20698;DHT22;10508;50.956;4.640;2022-08-03T14:25:38;35.00;63.10
20698;DHT22;10508;50.956;4.640;2022-08-03T14:28:06;35.50;63.30
20698;DHT22;10508;50.956;4.640;2022-08-03T14:30:32;35.80;60.20
20698;DHT22;10508;50.956;4.640;2022-08-03T14:32:58;36.10;60.80
20698;DHT22;10508;50.956;4.640;2022-08-03T14:35:24;36.50;60.50
20698;DHT22;10508;50.956;4.640;2022-08-03T14:37:49;36.90;59.80
20698;DHT22;10508;50.956;4.640;2022-08-03T14:40:16;36.90;58.60
20698;DHT22;10508;50.956;4.640;2022-08-03T14:42:42;36.70;59.40
20698;DHT22;10508;50.956;4.640;2022-08-03T14:45:08;36.80;60.30
20698;DHT22;10508;50.956;4.640;2022-08-03T14:47:33;36.20;58.90
20698;DHT22;10508;50.956;4.640;2022-08-03T14:49:59;35.70;60.30
20698;DHT22;10508;50.956;4.640;2022-08-03T14:52:25;35.30;61.10
20698;DHT22;10508;50.956;4.640;2022-08-03T14:54:50;35.30;61.40
20698;DHT22;10508;50.956;4.640;2022-08-03T14:57:16;35.50;60.60
20698;DHT22;10508;50.956;4.640;2022-08-03T14:59:41;36.00;60.50
20698;DHT22;10508;50.956;4.640;2022-08-03T15:02:07;36.20;60.40
20698;DHT22;10508;50.956;4.640;2022-08-03T15:04:33;36.40;58.40
20698;DHT22;10508;50.956;4.640;2022-08-03T15:06:59;36.60;59.40
20698;DHT22;10508;50.956;4.640;2022-08-03T15:09:24;36.60;58.10
20698;DHT22;10508;50.956;4.640;2022-08-03T15:11:50;36.80;59.10
20698;DHT22;10508;50.956;4.640;2022-08-03T15:14:16;37.20;57.90
20698;DHT22;10508;50.956;4.640;2022-08-03T15:16:41;37.20;56.90
20698;DHT22;10508;50.956;4.640;2022-08-03T15:19:07;37.20;57.30
20698;DHT22;10508;50.956;4.640;2022-08-03T15:21:33;36.90;58.30
20698;DHT22;10508;50.956;4.640;2022-08-03T15:23:58;37.00;58.40
20698;DHT22;10508;50.956;4.640;2022-08-03T15:26:24;36.90;58.30
20698;DHT22;10508;50.956;4.640;2022-08-03T15:28:49;37.30;57.90
20698;DHT22;10508;50.956;4.640;2022-08-03T15:31:20;37.20;56.80
20698;DHT22;10508;50.956;4.640;2022-08-03T15:33:45;37.20;58.40
20698;DHT22;10508;50.956;4.640;2022-08-03T15:36:11;37.20;57.70
20698;DHT22;10508;50.956;4.640;2022-08-03T15:38:36;37.50;56.90
20698;DHT22;10508;50.956;4.640;2022-08-03T15:41:02;37.90;56.30
20698;DHT22;10508;50.956;4.640;2022-08-03T15:43:28;37.90;56.00
20698;DHT22;10508;50.956;4.640;2022-08-03T15:45:53;37.90;56.40
20698;DHT22;10508;50.956;4.640;2022-08-03T15:48:19;37.90;56.20
20698;DHT22;10508;50.956;4.640;2022-08-03T15:50:45;37.60;56.50
20698;DHT22;10508;50.956;4.640;2022-08-03T15:53:11;37.40;55.70
20698;DHT22;10508;50.956;4.640;2022-08-03T15:55:36;37.50;54.80
20698;DHT22;10508;50.956;4.640;2022-08-03T15:58:02;37.70;56.00
20698;DHT22;10508;50.956;4.640;2022-08-03T16:00:27;37.50;57.20
20698;DHT22;10508;50.956;4.640;2022-08-03T16:02:55;37.80;55.00
20698;DHT22;10508;50.956;4.640;2022-08-03T16:05:21;38.00;55.10